createdAt,value
2023-10-06T00:00:00.955Z,9.30
2023-10-06T00:00:32.817Z,9.42
2023-10-06T00:01:04.045Z,9.42
2023-10-06T00:01:35.428Z,9.30
2023-10-06T00:02:09.198Z,9.30
2023-10-06T00:02:35.877Z,9.30
2023-10-06T00:02:56.076Z,9.42
2023-10-06T00:03:27.978Z,9.42
2023-10-06T00:04:00.084Z,9.42
2023-10-06T00:04:32.084Z,9.42
2023-10-06T00:05:04.285Z,9.42
2023-10-06T00:05:35.490Z,9.42
2023-10-06T00:05:52.273Z,9.42
2023-10-06T00:06:24.944Z,9.42
2023-10-06T00:06:41.884Z,9.42
2023-10-06T00:07:12.001Z,9.42
2023-10-06T00:07:35.532Z,9.42
2023-10-06T00:08:00.052Z,9.42
2023-10-06T00:08:32.849Z,9.42
2023-10-06T00:09:04.332Z,9.42
2023-10-06T00:09:37.269Z,9.42
2023-10-06T00:10:08.294Z,9.42
2023-10-06T00:10:35.490Z,9.26
2023-10-06T00:10:56.132Z,9.42
2023-10-06T00:11:27.983Z,9.26
2023-10-06T00:12:00.971Z,9.26
2023-10-06T00:12:31.993Z,9.26
2023-10-06T00:13:03.984Z,9.26
2023-10-06T00:13:35.586Z,9.42
2023-10-06T00:13:52.026Z,9.26
2023-10-06T00:14:24.938Z,9.26
2023-10-06T00:14:41.972Z,9.26
2023-10-06T00:15:12.199Z,9.26
2023-10-06T00:15:35.267Z,9.26
2023-10-06T00:16:00.200Z,9.26
2023-10-06T00:16:32.819Z,9.26
2023-10-06T00:17:04.088Z,9.26
2023-10-06T00:17:35.268Z,9.26
2023-10-06T00:18:08.682Z,9.26
2023-10-06T00:18:35.175Z,9.14
2023-10-06T00:18:55.968Z,9.14
2023-10-06T00:19:28.033Z,9.14
2023-10-06T00:20:00.040Z,9.14
2023-10-06T00:20:32.123Z,9.14
2023-10-06T00:21:05.594Z,9.26
2023-10-06T00:21:35.212Z,9.26
2023-10-06T00:21:52.088Z,9.26
2023-10-06T00:22:24.972Z,9.26
2023-10-06T00:22:41.965Z,9.37
2023-10-06T00:23:11.939Z,9.37
2023-10-06T00:23:35.354Z,9.37
2023-10-06T00:23:59.968Z,9.37
2023-10-06T00:24:32.790Z,9.37
2023-10-06T00:25:04.321Z,9.37
2023-10-06T00:25:35.959Z,9.37
2023-10-06T00:26:08.150Z,9.37
2023-10-06T00:26:35.274Z,9.37
2023-10-06T00:26:56.697Z,9.37
2023-10-06T00:27:27.987Z,9.37
2023-10-06T00:28:00.034Z,9.37
2023-10-06T00:28:31.988Z,9.37
2023-10-06T00:29:04.084Z,9.37
2023-10-06T00:29:35.247Z,9.26
2023-10-06T00:30:07.882Z,9.26
2023-10-06T00:30:24.992Z,9.26
2023-10-06T00:30:42.071Z,9.26
2023-10-06T00:31:12.015Z,9.26
2023-10-06T00:31:35.266Z,9.26
2023-10-06T00:32:01.020Z,9.26
2023-10-06T00:32:32.093Z,9.26
2023-10-06T00:33:04.895Z,9.26
2023-10-06T00:33:35.683Z,9.26
2023-10-06T00:34:07.830Z,9.26
2023-10-06T00:34:24.777Z,9.26
2023-10-06T00:34:41.788Z,9.26
2023-10-06T00:35:12.170Z,9.26
2023-10-06T00:35:35.247Z,9.26
2023-10-06T00:36:00.842Z,9.26
2023-10-06T00:36:31.940Z,9.26
2023-10-06T00:37:04.746Z,9.26
2023-10-06T00:37:35.275Z,9.26
2023-10-06T00:37:52.471Z,9.26
2023-10-06T00:38:24.053Z,9.26
2023-10-06T00:38:41.121Z,9.26
2023-10-06T00:39:18.532Z,9.26
2023-10-06T00:39:51.329Z,9.26
2023-10-06T00:40:16.145Z,9.26
2023-10-06T00:40:35.955Z,9.26
2023-10-06T00:41:04.881Z,9.26
2023-10-06T00:41:35.276Z,9.26
2023-10-06T00:42:07.673Z,9.26
2023-10-06T00:42:24.707Z,9.26
2023-10-06T00:42:41.919Z,9.26
2023-10-06T00:43:11.998Z,9.26
2023-10-06T00:43:35.321Z,9.26
2023-10-06T00:44:00.095Z,9.26
2023-10-06T00:44:32.670Z,9.26
2023-10-06T00:45:04.134Z,9.14
2023-10-06T00:45:36.514Z,9.14
2023-10-06T00:46:08.397Z,9.03
2023-10-06T00:46:35.408Z,9.03
2023-10-06T00:46:56.131Z,9.03
2023-10-06T00:47:28.108Z,9.03
2023-10-06T00:48:01.794Z,9.03
2023-10-06T00:48:32.172Z,9.03
2023-10-06T00:49:04.925Z,9.03
2023-10-06T00:49:35.417Z,9.03
2023-10-06T00:50:07.887Z,8.98
2023-10-06T00:50:24.798Z,8.98
2023-10-06T00:50:41.939Z,8.98
2023-10-06T00:51:11.988Z,8.98
2023-10-06T00:51:35.321Z,8.98
2023-10-06T00:52:00.112Z,8.98
2023-10-06T00:52:32.654Z,8.98
2023-10-06T00:53:04.323Z,8.98
2023-10-06T00:53:36.003Z,8.98
2023-10-06T00:54:08.090Z,8.98
2023-10-06T00:54:35.522Z,8.98
2023-10-06T00:54:56.121Z,8.98
2023-10-06T00:55:28.927Z,8.98
2023-10-06T00:56:01.076Z,8.98
2023-10-06T00:56:32.082Z,8.98
2023-10-06T00:57:04.816Z,8.88
2023-10-06T00:57:35.271Z,8.88
2023-10-06T00:58:07.529Z,8.88
2023-10-06T00:58:24.644Z,8.77
2023-10-06T00:58:41.720Z,8.77
2023-10-06T00:59:12.238Z,8.77
2023-10-06T00:59:35.234Z,8.77
2023-10-06T01:00:00.103Z,8.77
2023-10-06T01:00:32.981Z,8.77
2023-10-06T01:01:03.933Z,8.77
2023-10-06T01:01:36.711Z,8.77
2023-10-06T01:02:08.272Z,8.77
2023-10-06T01:02:35.420Z,8.92
2023-10-06T01:02:56.193Z,8.81
2023-10-06T01:03:28.125Z,8.81
2023-10-06T01:04:00.990Z,8.81
2023-10-06T01:04:31.998Z,8.81
2023-10-06T01:05:05.031Z,8.92
2023-10-06T01:05:35.581Z,8.92
2023-10-06T01:05:52.204Z,9.03
2023-10-06T01:06:24.070Z,9.03
2023-10-06T01:06:41.315Z,9.03
2023-10-06T01:07:12.730Z,9.03
2023-10-06T01:07:35.260Z,9.03
2023-10-06T01:08:00.005Z,9.03
2023-10-06T01:08:32.002Z,9.03
2023-10-06T01:09:04.027Z,9.03
2023-10-06T01:09:35.276Z,9.03
2023-10-06T01:09:52.124Z,9.03
2023-10-06T01:10:25.050Z,9.03
2023-10-06T01:10:41.943Z,8.92
2023-10-06T01:11:11.953Z,8.92
2023-10-06T01:11:35.367Z,8.92
2023-10-06T01:12:00.010Z,8.92
2023-10-06T01:12:32.734Z,8.92
2023-10-06T01:13:03.967Z,8.92
2023-10-06T01:13:36.240Z,8.92
2023-10-06T01:14:08.241Z,8.92
2023-10-06T01:14:35.416Z,8.92
2023-10-06T01:14:56.144Z,8.92
2023-10-06T01:15:28.188Z,8.81
2023-10-06T01:16:00.923Z,8.81
2023-10-06T01:16:32.098Z,8.81
2023-10-06T01:17:04.694Z,8.70
2023-10-06T01:17:35.385Z,8.70
2023-10-06T01:18:07.665Z,8.70
2023-10-06T01:18:24.647Z,8.70
2023-10-06T01:18:41.806Z,8.70
2023-10-06T01:19:11.973Z,8.70
2023-10-06T01:19:35.395Z,8.70
2023-10-06T01:20:00.022Z,8.70
2023-10-06T01:20:33.141Z,8.70
2023-10-06T01:21:03.902Z,8.70
2023-10-06T01:21:37.159Z,8.70
2023-10-06T01:22:08.349Z,8.70
2023-10-06T01:22:35.243Z,8.70
2023-10-06T01:22:56.136Z,8.70
2023-10-06T01:23:28.084Z,8.70
2023-10-06T01:24:00.954Z,8.70
2023-10-06T01:24:32.002Z,8.70
2023-10-06T01:25:04.876Z,8.70
2023-10-06T01:25:35.315Z,8.70
2023-10-06T01:25:52.379Z,8.97
2023-10-06T01:26:24.918Z,8.97
2023-10-06T01:26:41.852Z,8.97
2023-10-06T01:27:11.929Z,8.81
2023-10-06T01:27:35.228Z,8.92
2023-10-06T01:28:00.045Z,8.92
2023-10-06T01:28:32.772Z,8.92
2023-10-06T01:29:04.000Z,8.92
2023-10-06T01:29:36.305Z,8.92
2023-10-06T01:30:08.531Z,8.92
2023-10-06T01:30:35.435Z,8.92
2023-10-06T01:30:56.274Z,8.81
2023-10-06T01:31:28.024Z,8.81
2023-10-06T01:32:00.789Z,8.81
2023-10-06T01:32:32.148Z,8.97
2023-10-06T01:33:04.900Z,8.81
2023-10-06T01:33:35.518Z,8.81
2023-10-06T01:33:51.874Z,8.81
2023-10-06T01:34:24.045Z,8.81
2023-10-06T01:34:41.215Z,8.81
2023-10-06T01:35:12.890Z,8.70
2023-10-06T01:35:35.433Z,8.70
2023-10-06T01:36:00.236Z,8.70
2023-10-06T01:36:32.726Z,8.87
2023-10-06T01:37:04.008Z,8.87
2023-10-06T01:37:36.130Z,8.87
2023-10-06T01:38:08.241Z,8.81
2023-10-06T01:38:35.225Z,8.97
2023-10-06T01:38:56.065Z,8.97
2023-10-06T01:39:28.042Z,8.97
2023-10-06T01:40:01.049Z,8.97
2023-10-06T01:40:31.940Z,8.97
2023-10-06T01:41:03.950Z,8.97
2023-10-06T01:41:35.340Z,8.97
2023-10-06T01:42:07.694Z,9.09
2023-10-06T01:42:24.809Z,9.09
2023-10-06T01:42:41.774Z,9.09
2023-10-06T01:43:11.917Z,9.09
2023-10-06T01:43:35.332Z,9.09
2023-10-06T01:44:01.229Z,9.09
2023-10-06T01:44:31.990Z,9.09
2023-10-06T01:45:05.152Z,8.97
2023-10-06T01:45:36.032Z,8.97
2023-10-06T01:46:08.220Z,8.97
2023-10-06T01:46:35.382Z,8.97
2023-10-06T01:46:56.171Z,8.97
2023-10-06T01:47:28.856Z,8.97
2023-10-06T01:48:00.098Z,8.97
2023-10-06T01:48:31.959Z,8.97
2023-10-06T01:49:04.010Z,8.97
2023-10-06T01:49:35.508Z,8.97
2023-10-06T01:50:09.029Z,8.97
2023-10-06T01:50:35.229Z,8.97
2023-10-06T01:50:56.304Z,8.97
2023-10-06T01:51:28.814Z,8.97
2023-10-06T01:52:09.307Z,8.97
2023-10-06T01:52:31.984Z,8.97
2023-10-06T01:53:03.993Z,8.97
2023-10-06T01:53:35.258Z,8.97
2023-10-06T01:54:08.775Z,8.97
2023-10-06T01:54:35.500Z,8.97
2023-10-06T01:54:56.712Z,8.97
2023-10-06T01:55:28.998Z,8.97
2023-10-06T01:56:00.056Z,8.97
2023-10-06T01:56:32.759Z,8.97
2023-10-06T01:57:03.962Z,8.97
2023-10-06T01:57:36.230Z,8.97
2023-10-06T01:58:08.147Z,8.97
2023-10-06T01:58:35.784Z,9.09
2023-10-06T01:58:56.786Z,9.09
2023-10-06T01:59:28.028Z,9.09
2023-10-06T02:00:01.400Z,9.20
2023-10-06T02:00:31.915Z,9.20
2023-10-06T02:01:04.018Z,9.31
2023-10-06T02:01:35.632Z,9.31
2023-10-06T02:01:52.042Z,9.31
2023-10-06T02:02:25.076Z,9.14
2023-10-06T02:02:41.992Z,9.03
2023-10-06T02:03:12.189Z,9.03
2023-10-06T02:03:36.139Z,9.03
2023-10-06T02:04:00.849Z,9.03
2023-10-06T02:04:32.066Z,9.03
2023-10-06T02:05:04.429Z,9.03
2023-10-06T02:05:35.768Z,9.03
2023-10-06T02:06:08.041Z,9.03
2023-10-06T02:06:35.237Z,9.03
2023-10-06T02:06:56.284Z,9.03
2023-10-06T02:07:28.756Z,9.03
2023-10-06T02:08:00.068Z,9.03
2023-10-06T02:08:32.003Z,9.03
2023-10-06T02:09:03.964Z,9.03
2023-10-06T02:09:35.264Z,9.03
2023-10-06T02:10:08.947Z,9.03
2023-10-06T02:10:35.349Z,9.03
2023-10-06T02:10:56.388Z,9.03
2023-10-06T02:11:28.724Z,9.03
2023-10-06T02:12:00.109Z,9.03
2023-10-06T02:12:31.968Z,9.03
2023-10-06T02:13:03.983Z,8.92
2023-10-06T02:13:35.628Z,8.92
2023-10-06T02:13:52.868Z,8.92
2023-10-06T02:14:24.005Z,8.92
2023-10-06T02:14:41.123Z,8.92
2023-10-06T02:15:13.150Z,8.92
2023-10-06T02:15:35.297Z,8.92
2023-10-06T02:16:00.564Z,8.92
2023-10-06T02:16:32.806Z,8.81
2023-10-06T02:17:04.069Z,8.81
2023-10-06T02:17:36.744Z,8.81
2023-10-06T02:18:08.251Z,8.81
2023-10-06T02:18:35.350Z,8.70
2023-10-06T02:18:56.741Z,8.70
2023-10-06T02:19:27.989Z,8.70
2023-10-06T02:20:01.227Z,8.70
2023-10-06T02:20:32.040Z,8.65
2023-10-06T02:21:04.799Z,8.65
2023-10-06T02:21:35.520Z,8.65
2023-10-06T02:22:09.201Z,8.65
2023-10-06T02:22:35.718Z,8.65
2023-10-06T02:22:56.103Z,8.65
2023-10-06T02:23:28.785Z,8.65
2023-10-06T02:24:00.094Z,8.65
2023-10-06T02:24:32.678Z,8.65
2023-10-06T02:25:04.159Z,8.65
2023-10-06T02:25:36.671Z,8.65
2023-10-06T02:26:08.175Z,8.65
2023-10-06T02:26:35.298Z,8.65
2023-10-06T02:26:56.748Z,8.65
2023-10-06T02:27:28.056Z,8.65
2023-10-06T02:28:01.067Z,8.65
2023-10-06T02:28:31.985Z,8.65
2023-10-06T02:29:03.977Z,8.65
2023-10-06T02:29:35.990Z,8.65
2023-10-06T02:30:08.159Z,8.65
2023-10-06T02:30:35.467Z,8.65
2023-10-06T02:30:56.618Z,8.65
2023-10-06T02:31:28.732Z,8.65
2023-10-06T02:32:00.101Z,8.54
2023-10-06T02:32:32.796Z,8.71
2023-10-06T02:33:04.093Z,8.71
2023-10-06T02:33:36.147Z,8.71
2023-10-06T02:34:08.328Z,8.65
2023-10-06T02:34:35.783Z,8.82
2023-10-06T02:34:56.178Z,8.65
2023-10-06T02:35:28.283Z,8.65
2023-10-06T02:36:01.169Z,8.65
2023-10-06T02:36:32.011Z,8.71
2023-10-06T02:37:04.921Z,8.71
2023-10-06T02:37:35.230Z,8.71
2023-10-06T02:38:07.526Z,8.71
2023-10-06T02:38:25.270Z,8.71
2023-10-06T02:38:41.864Z,8.71
2023-10-06T02:39:11.942Z,8.71
2023-10-06T02:39:35.374Z,8.71
2023-10-06T02:40:01.084Z,8.71
2023-10-06T02:40:31.992Z,8.71
2023-10-06T02:41:04.006Z,8.71
2023-10-06T02:41:35.224Z,8.71
2023-10-06T02:41:51.766Z,8.71
2023-10-06T02:42:24.880Z,8.60
2023-10-06T02:42:41.822Z,8.60
2023-10-06T02:43:12.012Z,8.60
2023-10-06T02:43:35.285Z,8.60
2023-10-06T02:44:00.104Z,8.82
2023-10-06T02:44:32.822Z,8.82
2023-10-06T02:45:04.292Z,8.82
2023-10-06T02:45:36.145Z,8.82
2023-10-06T02:46:08.000Z,8.82
2023-10-06T02:46:36.252Z,8.87
2023-10-06T02:46:56.964Z,8.87
2023-10-06T02:47:28.055Z,8.87
2023-10-06T02:48:00.133Z,8.82
2023-10-06T02:48:32.006Z,8.82
2023-10-06T02:49:03.907Z,8.82
2023-10-06T02:49:36.109Z,8.82
2023-10-06T02:50:08.323Z,8.82
2023-10-06T02:50:35.476Z,8.82
2023-10-06T02:50:56.777Z,8.82
2023-10-06T02:51:29.938Z,8.82
2023-10-06T02:52:00.124Z,8.82
2023-10-06T02:52:31.913Z,8.87
2023-10-06T02:53:04.013Z,8.87
2023-10-06T02:53:35.373Z,8.87
2023-10-06T02:53:52.724Z,8.87
2023-10-06T02:54:24.025Z,8.87
2023-10-06T02:54:41.542Z,8.87
2023-10-06T02:55:12.093Z,8.87
2023-10-06T02:55:35.292Z,8.87
2023-10-06T02:56:01.009Z,8.87
2023-10-06T02:56:32.032Z,8.87
2023-10-06T02:57:04.850Z,8.87
2023-10-06T02:57:35.214Z,8.87
2023-10-06T02:58:07.494Z,8.87
2023-10-06T02:58:24.918Z,8.87
2023-10-06T02:58:41.897Z,8.87
2023-10-06T02:59:11.923Z,8.87
2023-10-06T02:59:35.365Z,8.87
2023-10-06T03:00:00.129Z,8.87
2023-10-06T03:00:33.029Z,8.87
2023-10-06T03:01:03.969Z,8.87
2023-10-06T03:01:36.368Z,8.87
2023-10-06T03:02:08.300Z,8.87
2023-10-06T03:02:35.412Z,8.87
2023-10-06T03:02:56.138Z,8.87
2023-10-06T03:03:27.996Z,8.87
2023-10-06T03:04:00.931Z,8.82
2023-10-06T03:04:32.082Z,8.82
2023-10-06T03:05:04.172Z,8.82
2023-10-06T03:05:35.378Z,8.82
2023-10-06T03:06:07.488Z,8.82
2023-10-06T03:06:24.858Z,8.82
2023-10-06T03:06:41.817Z,8.87
2023-10-06T03:07:11.959Z,8.87
2023-10-06T03:07:35.282Z,8.87
2023-10-06T03:08:00.949Z,8.87
2023-10-06T03:08:31.998Z,8.87
2023-10-06T03:09:03.990Z,8.97
2023-10-06T03:09:35.314Z,8.97
2023-10-06T03:10:07.913Z,8.97
2023-10-06T03:10:24.891Z,8.97
2023-10-06T03:10:42.071Z,8.97
2023-10-06T03:11:11.942Z,9.09
2023-10-06T03:11:36.040Z,9.09
2023-10-06T03:12:00.184Z,8.92
2023-10-06T03:12:32.874Z,8.92
2023-10-06T03:13:04.011Z,8.92
2023-10-06T03:13:35.477Z,8.92
2023-10-06T03:14:08.679Z,8.92
2023-10-06T03:14:35.289Z,8.92
2023-10-06T03:14:56.087Z,8.81
2023-10-06T03:15:29.335Z,8.81
2023-10-06T03:16:00.012Z,8.81
2023-10-06T03:16:31.975Z,8.92
2023-10-06T03:17:03.994Z,8.92
2023-10-06T03:17:35.388Z,8.92
2023-10-06T03:18:08.951Z,8.92
2023-10-06T03:18:36.269Z,8.92
2023-10-06T03:18:56.152Z,8.92
2023-10-06T03:19:28.000Z,8.81
2023-10-06T03:20:00.105Z,8.81
2023-10-06T03:20:32.315Z,8.92
2023-10-06T03:21:03.994Z,8.92
2023-10-06T03:21:35.877Z,8.92
2023-10-06T03:22:08.296Z,8.92
2023-10-06T03:22:35.433Z,8.92
2023-10-06T03:22:56.030Z,8.92
2023-10-06T03:23:28.725Z,8.92
2023-10-06T03:24:00.074Z,8.81
2023-10-06T03:24:32.728Z,8.81
2023-10-06T03:25:04.282Z,8.81
2023-10-06T03:25:36.597Z,8.81
2023-10-06T03:26:08.636Z,8.81
2023-10-06T03:26:35.321Z,8.81
2023-10-06T03:26:57.563Z,8.81
2023-10-06T03:27:28.088Z,8.81
2023-10-06T03:28:00.093Z,8.81
2023-10-06T03:28:31.963Z,8.81
2023-10-06T03:29:04.326Z,8.81
2023-10-06T03:29:35.289Z,8.81
2023-10-06T03:30:07.983Z,8.92
2023-10-06T03:30:24.870Z,8.92
2023-10-06T03:30:42.082Z,8.92
2023-10-06T03:31:11.985Z,8.81
2023-10-06T03:31:35.892Z,8.81
2023-10-06T03:32:00.912Z,8.81
2023-10-06T03:32:31.936Z,8.81
2023-10-06T03:33:04.976Z,8.92
2023-10-06T03:33:35.301Z,8.92
2023-10-06T03:34:08.187Z,8.92
2023-10-06T03:34:24.854Z,8.92
2023-10-06T03:34:41.801Z,8.92
2023-10-06T03:35:12.130Z,8.92
2023-10-06T03:35:35.240Z,8.81
2023-10-06T03:36:00.219Z,8.81
2023-10-06T03:36:33.037Z,8.81
2023-10-06T03:37:03.946Z,8.81
2023-10-06T03:37:35.845Z,8.81
2023-10-06T03:38:08.253Z,8.81
2023-10-06T03:38:35.183Z,8.81
2023-10-06T03:38:56.893Z,8.81
2023-10-06T03:39:27.992Z,8.81
2023-10-06T03:40:17.146Z,8.92
2023-10-06T03:40:36.340Z,8.92
2023-10-06T03:41:03.977Z,8.92
2023-10-06T03:41:35.216Z,8.92
2023-10-06T03:42:09.454Z,8.92
2023-10-06T03:42:35.932Z,9.03
2023-10-06T03:42:56.199Z,9.03
2023-10-06T03:43:28.747Z,9.03
2023-10-06T03:44:00.109Z,9.03
2023-10-06T03:44:32.140Z,9.03
2023-10-06T03:45:04.220Z,9.03
2023-10-06T03:45:36.710Z,9.03
2023-10-06T03:46:08.152Z,9.03
2023-10-06T03:46:35.296Z,9.03
2023-10-06T03:46:56.881Z,9.03
2023-10-06T03:47:28.057Z,9.03
2023-10-06T03:48:00.058Z,9.03
2023-10-06T03:48:31.929Z,9.03
2023-10-06T03:49:03.913Z,9.03
2023-10-06T03:49:35.329Z,9.03
2023-10-06T03:50:07.898Z,9.03
2023-10-06T03:50:24.759Z,9.03
2023-10-06T03:50:44.221Z,9.03
2023-10-06T03:51:11.899Z,9.03
2023-10-06T03:51:35.415Z,8.88
2023-10-06T03:52:00.055Z,8.88
2023-10-06T03:52:32.800Z,8.88
2023-10-06T03:53:04.155Z,8.88
2023-10-06T03:53:35.321Z,8.88
2023-10-06T03:54:08.597Z,8.88
2023-10-06T03:54:35.236Z,8.88
2023-10-06T03:54:56.051Z,8.77
2023-10-06T03:55:28.923Z,8.77
2023-10-06T03:56:00.234Z,8.77
2023-10-06T03:56:32.864Z,8.65
2023-10-06T03:57:03.926Z,8.65
2023-10-06T03:57:35.236Z,8.65
2023-10-06T03:58:08.652Z,8.65
2023-10-06T03:58:35.728Z,8.65
2023-10-06T03:58:56.346Z,8.65
2023-10-06T03:59:28.018Z,8.65
2023-10-06T04:00:00.050Z,8.81
2023-10-06T04:00:32.272Z,8.54
2023-10-06T04:01:04.077Z,8.54
2023-10-06T04:01:35.308Z,8.70
2023-10-06T04:02:07.665Z,8.70
2023-10-06T04:02:24.753Z,8.70
2023-10-06T04:02:41.879Z,8.70
2023-10-06T04:03:11.992Z,8.70
2023-10-06T04:03:35.502Z,8.70
2023-10-06T04:04:01.169Z,8.81
2023-10-06T04:04:32.081Z,8.81
2023-10-06T04:05:05.052Z,8.81
2023-10-06T04:05:35.329Z,8.81
2023-10-06T04:06:07.871Z,8.81
2023-10-06T04:06:24.823Z,8.81
2023-10-06T04:06:41.827Z,8.81
2023-10-06T04:07:12.045Z,8.81
2023-10-06T04:07:35.229Z,8.81
2023-10-06T04:08:00.128Z,8.81
2023-10-06T04:08:32.941Z,8.81
2023-10-06T04:09:19.920Z,8.81
2023-10-06T04:09:52.318Z,8.81
2023-10-06T04:10:24.074Z,8.81
2023-10-06T04:10:42.016Z,8.81
2023-10-06T04:11:12.030Z,8.81
2023-10-06T04:11:35.891Z,8.81
2023-10-06T04:12:00.786Z,8.81
2023-10-06T04:12:31.881Z,8.81
2023-10-06T04:13:04.753Z,8.81
2023-10-06T04:13:35.214Z,8.81
2023-10-06T04:13:52.048Z,8.81
2023-10-06T04:14:23.998Z,8.81
2023-10-06T04:14:41.130Z,8.70
2023-10-06T04:15:13.172Z,8.70
2023-10-06T04:15:35.378Z,8.70
2023-10-06T04:16:00.233Z,8.70
2023-10-06T04:16:31.920Z,8.70
2023-10-06T04:17:04.128Z,8.70
2023-10-06T04:17:35.319Z,8.70
2023-10-06T04:17:51.719Z,8.70
2023-10-06T04:18:25.090Z,8.70
2023-10-06T04:18:42.496Z,8.81
2023-10-06T04:19:27.964Z,8.81
2023-10-06T04:20:00.430Z,8.81
2023-10-06T04:20:31.961Z,8.81
2023-10-06T04:21:03.977Z,8.81
2023-10-06T04:21:35.356Z,8.81
2023-10-06T04:22:10.167Z,8.81
2023-10-06T04:22:35.716Z,8.81
2023-10-06T04:22:56.081Z,8.81
2023-10-06T04:23:28.720Z,8.81
2023-10-06T04:24:00.091Z,8.81
2023-10-06T04:24:32.746Z,8.81
2023-10-06T04:25:04.333Z,8.81
2023-10-06T04:25:36.390Z,8.81
2023-10-06T04:26:08.357Z,8.81
2023-10-06T04:26:35.757Z,8.70
2023-10-06T04:26:56.739Z,8.70
2023-10-06T04:27:28.354Z,8.70
2023-10-06T04:28:00.890Z,8.70
2023-10-06T04:28:31.907Z,8.70
2023-10-06T04:29:04.073Z,8.65
2023-10-06T04:29:35.277Z,8.65
2023-10-06T04:30:07.840Z,8.65
2023-10-06T04:30:24.904Z,8.65
2023-10-06T04:30:42.832Z,8.65
2023-10-06T04:31:11.956Z,8.65
2023-10-06T04:31:36.431Z,8.65
2023-10-06T04:32:00.183Z,8.65
2023-10-06T04:32:32.001Z,8.65
2023-10-06T04:33:03.942Z,8.65
2023-10-06T04:33:35.319Z,8.70
2023-10-06T04:34:09.257Z,8.70
2023-10-06T04:34:35.278Z,8.70
2023-10-06T04:34:56.149Z,8.70
2023-10-06T04:35:28.130Z,8.70
2023-10-06T04:36:00.000Z,8.70
2023-10-06T04:36:31.940Z,8.65
2023-10-06T04:37:03.921Z,8.65
2023-10-06T04:37:35.654Z,8.65
2023-10-06T04:38:08.192Z,8.65
2023-10-06T04:38:35.290Z,8.65
2023-10-06T04:38:57.971Z,8.65
2023-10-06T04:39:28.807Z,8.65
2023-10-06T04:40:00.072Z,8.65
2023-10-06T04:40:32.064Z,8.65
2023-10-06T04:41:03.976Z,8.65
2023-10-06T04:41:36.050Z,8.65
2023-10-06T04:42:08.496Z,8.65
2023-10-06T04:42:35.413Z,8.65
2023-10-06T04:42:56.884Z,8.70
2023-10-06T04:43:27.993Z,8.70
2023-10-06T04:44:01.454Z,8.81
2023-10-06T04:44:31.991Z,8.81
2023-10-06T04:45:04.319Z,8.81
2023-10-06T04:45:35.278Z,8.81
2023-10-06T04:45:51.921Z,8.81
2023-10-06T04:46:24.942Z,8.81
2023-10-06T04:46:42.667Z,8.81
2023-10-06T04:47:11.916Z,8.81
2023-10-06T04:47:35.513Z,8.81
2023-10-06T04:48:00.223Z,8.92
2023-10-06T04:48:33.627Z,8.92
2023-10-06T04:49:03.958Z,8.92
2023-10-06T04:49:35.406Z,8.92
2023-10-06T04:49:52.568Z,8.92
2023-10-06T04:50:24.112Z,8.92
2023-10-06T04:50:41.254Z,8.92
2023-10-06T04:51:11.906Z,8.92
2023-10-06T04:51:35.524Z,8.92
2023-10-06T04:52:00.945Z,8.92
2023-10-06T04:52:32.038Z,8.92
2023-10-06T04:53:06.037Z,9.03
2023-10-06T04:53:35.394Z,9.03
2023-10-06T04:54:07.498Z,9.03
2023-10-06T04:54:24.882Z,9.03
2023-10-06T04:54:42.661Z,9.03
2023-10-06T04:55:12.342Z,9.03
2023-10-06T04:55:35.920Z,9.03
2023-10-06T04:56:00.173Z,9.03
2023-10-06T04:56:32.839Z,8.88
2023-10-06T04:57:03.931Z,8.88
2023-10-06T04:57:35.225Z,8.88
2023-10-06T04:57:52.625Z,8.98
2023-10-06T04:58:23.977Z,8.98
2023-10-06T04:58:41.530Z,8.98
2023-10-06T04:59:13.237Z,8.98
2023-10-06T04:59:35.247Z,8.98
2023-10-06T05:00:01.096Z,8.98
2023-10-06T05:00:31.926Z,8.88
2023-10-06T05:01:03.942Z,8.88
2023-10-06T05:01:35.269Z,8.88
2023-10-06T05:01:51.762Z,8.88
2023-10-06T05:02:24.977Z,8.98
2023-10-06T05:02:42.828Z,8.98
2023-10-06T05:03:12.307Z,8.98
2023-10-06T05:03:35.446Z,8.98
2023-10-06T05:04:00.019Z,8.98
2023-10-06T05:04:31.977Z,8.98
2023-10-06T05:05:05.198Z,8.98
2023-10-06T05:05:35.229Z,8.98
2023-10-06T05:05:52.209Z,8.98
2023-10-06T05:06:23.947Z,8.98
2023-10-06T05:06:41.069Z,8.98
2023-10-06T05:07:12.793Z,8.98
2023-10-06T05:07:35.286Z,8.98
2023-10-06T05:08:00.034Z,8.98
2023-10-06T05:08:32.732Z,8.98
2023-10-06T05:09:03.983Z,8.98
2023-10-06T05:09:35.355Z,8.98
2023-10-06T05:10:08.966Z,8.98
2023-10-06T05:10:35.301Z,8.98
2023-10-06T05:10:56.199Z,8.98
2023-10-06T05:11:28.739Z,8.98
2023-10-06T05:12:00.159Z,8.98
2023-10-06T05:12:32.751Z,8.98
2023-10-06T05:13:04.035Z,8.98
2023-10-06T05:13:37.113Z,8.98
2023-10-06T05:14:08.232Z,8.98
2023-10-06T05:14:35.383Z,8.82
2023-10-06T05:14:56.025Z,8.98
2023-10-06T05:15:28.216Z,8.82
2023-10-06T05:16:01.009Z,8.98
2023-10-06T05:16:32.069Z,8.98
2023-10-06T05:17:03.985Z,8.88
2023-10-06T05:17:35.380Z,8.88
2023-10-06T05:17:51.807Z,8.88
2023-10-06T05:18:25.877Z,8.88
2023-10-06T05:18:42.799Z,8.88
2023-10-06T05:19:11.949Z,8.88
2023-10-06T05:19:35.803Z,8.88
2023-10-06T05:20:00.347Z,8.88
2023-10-06T05:20:32.868Z,8.88
2023-10-06T05:21:04.122Z,8.88
2023-10-06T05:21:36.822Z,8.88
2023-10-06T05:22:08.240Z,8.77
2023-10-06T05:22:36.162Z,8.77
2023-10-06T05:22:56.102Z,8.77
2023-10-06T05:23:27.972Z,8.77
2023-10-06T05:24:01.057Z,8.77
2023-10-06T05:24:31.961Z,8.77
2023-10-06T05:25:05.071Z,8.65
2023-10-06T05:25:35.383Z,8.65
2023-10-06T05:26:07.862Z,8.65
2023-10-06T05:26:24.824Z,8.65
2023-10-06T05:26:41.945Z,8.65
2023-10-06T05:27:11.916Z,8.65
2023-10-06T05:27:35.360Z,8.65
2023-10-06T05:28:00.867Z,8.65
2023-10-06T05:28:35.432Z,8.65
2023-10-06T05:29:04.029Z,8.65
2023-10-06T05:29:36.983Z,8.65
2023-10-06T05:29:51.747Z,8.65
2023-10-06T05:30:25.322Z,8.65
2023-10-06T05:30:42.834Z,8.54
2023-10-06T05:31:12.522Z,8.54
2023-10-06T05:31:35.384Z,8.54
2023-10-06T05:32:00.254Z,8.54
2023-10-06T05:32:33.028Z,8.54
2023-10-06T05:33:04.067Z,8.54
2023-10-06T05:33:35.654Z,8.54
2023-10-06T05:33:53.800Z,8.54
2023-10-06T05:34:24.154Z,8.54
2023-10-06T05:34:41.181Z,8.54
2023-10-06T05:35:12.176Z,8.70
2023-10-06T05:35:35.392Z,8.70
2023-10-06T05:36:00.949Z,8.70
2023-10-06T05:36:32.017Z,8.54
2023-10-06T05:37:04.920Z,8.70
2023-10-06T05:37:35.277Z,8.81
2023-10-06T05:37:51.708Z,8.65
2023-10-06T05:38:24.032Z,8.65
2023-10-06T05:38:41.324Z,8.65
2023-10-06T05:39:12.884Z,8.65
2023-10-06T05:39:36.204Z,8.65
2023-10-06T05:40:00.591Z,8.65
2023-10-06T05:40:33.036Z,8.65
2023-10-06T05:41:04.187Z,8.65
2023-10-06T05:41:36.484Z,8.65
2023-10-06T05:42:08.279Z,8.65
2023-10-06T05:42:35.263Z,8.65
2023-10-06T05:42:56.352Z,8.77
2023-10-06T05:43:28.140Z,8.77
2023-10-06T05:44:01.861Z,8.77
2023-10-06T05:44:32.691Z,8.77
2023-10-06T05:45:05.712Z,8.77
2023-10-06T05:45:35.434Z,8.77
2023-10-06T05:45:52.023Z,8.77
2023-10-06T05:46:24.248Z,8.77
2023-10-06T05:46:41.319Z,8.77
2023-10-06T05:47:13.033Z,8.77
2023-10-06T05:47:35.493Z,8.77
2023-10-06T05:48:00.290Z,8.77
2023-10-06T05:48:32.984Z,8.77
2023-10-06T05:49:04.292Z,8.77
2023-10-06T05:49:35.609Z,8.77
2023-10-06T05:49:53.421Z,8.77
2023-10-06T05:50:24.457Z,8.77
2023-10-06T05:50:41.300Z,8.77
2023-10-06T05:51:12.652Z,8.77
2023-10-06T05:51:35.441Z,8.77
2023-10-06T05:52:00.944Z,8.88
2023-10-06T05:52:32.137Z,8.88
2023-10-06T05:53:04.163Z,8.88
2023-10-06T05:53:35.550Z,8.88
2023-10-06T05:53:51.771Z,8.88
2023-10-06T05:54:25.148Z,8.88
2023-10-06T05:54:42.010Z,8.88
2023-10-06T05:55:12.444Z,8.88
2023-10-06T05:55:35.492Z,8.88
2023-10-06T05:56:00.265Z,8.88
2023-10-06T05:56:32.932Z,8.88
2023-10-06T05:57:04.108Z,8.88
2023-10-06T05:57:36.585Z,8.88
2023-10-06T05:58:08.225Z,8.88
2023-10-06T05:58:35.521Z,8.88
2023-10-06T05:58:56.344Z,8.88
2023-10-06T05:59:28.123Z,8.88
2023-10-06T06:00:00.679Z,8.88
2023-10-06T06:00:32.100Z,8.88
2023-10-06T06:01:04.214Z,8.88
2023-10-06T06:01:35.735Z,8.88
2023-10-06T06:01:51.900Z,8.88
2023-10-06T06:02:25.009Z,8.88
2023-10-06T06:02:42.327Z,8.88
2023-10-06T06:03:12.133Z,8.88
2023-10-06T06:03:35.417Z,8.88
2023-10-06T06:04:32.995Z,8.88
2023-10-06T06:05:04.378Z,8.98
2023-10-06T06:05:38.378Z,8.98
2023-10-06T06:06:08.132Z,8.82
2023-10-06T06:06:35.585Z,8.82
2023-10-06T06:06:58.681Z,8.86
2023-10-06T06:07:28.151Z,9.03
2023-10-06T06:08:00.125Z,8.86
2023-10-06T06:08:33.025Z,8.86
2023-10-06T06:09:04.115Z,8.86
2023-10-06T06:09:36.384Z,8.86
2023-10-06T06:10:08.342Z,8.86
2023-10-06T06:10:35.631Z,8.97
2023-10-06T06:10:56.922Z,8.97
2023-10-06T06:11:28.113Z,8.97
2023-10-06T06:12:01.025Z,8.97
2023-10-06T06:12:32.139Z,8.97
2023-10-06T06:13:05.277Z,8.97
2023-10-06T06:13:36.174Z,8.97
2023-10-06T06:14:35.487Z,8.97
2023-10-06T06:14:56.404Z,8.97
2023-10-06T06:15:29.279Z,8.97
2023-10-06T06:16:00.191Z,8.97
2023-10-06T06:16:32.877Z,9.09
2023-10-06T06:17:04.240Z,9.09
2023-10-06T06:17:35.680Z,9.09